createdAt,value
2023-03-06T00:07:05.573Z,962.82
2023-03-06T00:17:05.786Z,962.63
2023-03-06T00:27:05.919Z,962.59
2023-03-06T00:37:06.142Z,962.47
2023-03-06T00:47:06.269Z,962.35
2023-03-06T00:57:06.467Z,962.17
2023-03-06T01:07:06.710Z,962.14
2023-03-06T01:17:06.912Z,961.99
2023-03-06T01:27:07.069Z,961.95
2023-03-06T01:37:07.345Z,961.69
2023-03-06T01:47:07.363Z,961.72
2023-03-06T01:57:07.560Z,961.61
2023-03-06T02:07:07.814Z,961.43
2023-03-06T02:17:08.057Z,961.29
2023-03-06T02:27:08.067Z,961.12
2023-03-06T02:37:08.268Z,961.01
2023-03-06T02:47:08.547Z,960.87
2023-03-06T02:57:08.612Z,960.73
2023-03-06T03:07:08.858Z,960.67
2023-03-06T03:17:09.069Z,960.64
2023-03-06T03:27:09.322Z,960.63
2023-03-06T03:37:09.405Z,960.67
2023-03-06T03:47:09.669Z,960.72
2023-03-06T03:57:09.848Z,960.62
2023-03-06T04:07:10.107Z,960.49
2023-03-06T04:17:10.255Z,960.45
2023-03-06T04:27:10.374Z,960.37
2023-03-06T04:37:10.580Z,960.34
2023-03-06T04:47:11.133Z,960.29
2023-03-06T04:57:10.991Z,960.24
2023-03-06T05:07:11.228Z,960.16
2023-03-06T05:17:11.358Z,960.26
2023-03-06T05:27:11.493Z,960.20
2023-03-06T05:37:11.688Z,960.17
2023-03-06T05:47:12.171Z,960.23
2023-03-06T05:57:12.022Z,960.16
2023-03-06T06:07:12.268Z,960.24
2023-03-06T06:17:12.547Z,960.19
2023-03-06T06:27:12.680Z,960.23
2023-03-06T06:37:12.875Z,960.18
2023-03-06T06:47:28.604Z,960.20
2023-03-06T06:57:14.394Z,960.34
2023-03-06T07:07:13.507Z,960.31
2023-03-06T07:17:13.728Z,960.25
2023-03-06T07:27:13.860Z,960.33
2023-03-06T07:37:14.050Z,960.42
2023-03-06T07:47:14.404Z,960.53
2023-03-06T07:57:14.460Z,960.59
2023-03-06T08:07:14.717Z,960.66
2023-03-06T08:17:14.916Z,960.66
2023-03-06T08:27:15.155Z,960.73
2023-03-06T08:37:15.383Z,960.76
2023-03-06T08:47:15.654Z,960.72
2023-03-06T08:57:15.890Z,960.75
2023-03-06T09:07:16.214Z,960.63
2023-03-06T09:17:16.149Z,960.62
2023-03-06T09:27:16.354Z,960.48
2023-03-06T09:37:17.425Z,960.51
2023-03-06T09:47:16.805Z,960.47
2023-03-06T09:57:16.760Z,960.50
2023-03-06T10:07:17.022Z,960.57
2023-03-06T10:17:17.119Z,960.48
2023-03-06T10:27:17.490Z,960.63
2023-03-06T10:37:17.477Z,960.42
2023-03-06T10:47:17.617Z,960.64
2023-03-06T10:57:17.795Z,960.62
2023-03-06T11:07:18.092Z,960.72
2023-03-06T11:17:18.203Z,960.82
2023-03-06T11:27:18.344Z,960.84
2023-03-06T11:37:18.501Z,960.72
2023-03-06T11:47:18.642Z,960.69
2023-03-06T11:57:18.823Z,960.55
2023-03-06T12:07:19.100Z,960.24
2023-03-06T12:17:19.189Z,960.07
2023-03-06T12:27:19.443Z,959.94
2023-03-06T12:37:19.578Z,959.90
2023-03-06T12:47:19.696Z,959.86
2023-03-06T12:57:19.897Z,959.72
2023-03-06T13:07:20.140Z,959.75
2023-03-06T13:17:20.345Z,959.58
2023-03-06T13:27:20.498Z,959.54
2023-03-06T13:37:20.962Z,959.60
2023-03-06T13:47:20.795Z,959.66
2023-03-06T13:57:21.164Z,959.55
2023-03-06T14:07:21.232Z,959.45
2023-03-06T14:17:21.413Z,959.53
2023-03-06T14:27:21.718Z,959.56
2023-03-06T14:37:22.030Z,959.57
2023-03-06T14:47:21.963Z,959.40
2023-03-06T14:57:22.233Z,959.41
2023-03-06T15:07:22.305Z,959.43
2023-03-06T15:17:22.465Z,959.45
2023-03-06T15:27:22.765Z,959.34
2023-03-06T15:37:22.728Z,959.27
2023-03-06T15:47:23.010Z,959.22
2023-03-06T15:57:23.106Z,959.28
2023-03-06T16:07:23.263Z,959.29
2023-03-06T16:17:23.365Z,959.43
2023-03-06T16:27:23.736Z,959.51
2023-03-06T16:37:23.713Z,959.59
2023-03-06T16:47:24.026Z,959.60
2023-03-06T16:57:24.330Z,959.75
2023-03-06T17:07:24.479Z,959.84
2023-03-06T17:17:24.574Z,959.93
2023-03-06T17:27:24.887Z,960.07
2023-03-06T17:37:24.794Z,960.23
2023-03-06T17:47:24.954Z,960.21
2023-03-06T17:57:25.174Z,960.23
2023-03-06T18:07:25.674Z,960.27
2023-03-06T18:17:25.647Z,960.19
2023-03-06T18:27:25.930Z,960.28
2023-03-06T18:37:25.875Z,960.29
2023-03-06T18:47:26.073Z,960.33
2023-03-06T18:57:27.771Z,960.28
2023-03-06T19:07:26.381Z,960.35
2023-03-06T19:17:26.737Z,960.27
2023-03-06T19:27:26.767Z,960.28
2023-03-06T19:37:26.905Z,960.21
2023-03-06T19:47:27.066Z,960.22
2023-03-06T19:57:27.361Z,960.27
2023-03-06T20:07:27.428Z,960.16
2023-03-06T20:17:27.521Z,960.14
2023-03-06T20:27:27.748Z,960.16
2023-03-06T20:37:27.968Z,960.19
2023-03-06T20:47:28.286Z,960.14
2023-03-06T20:57:28.231Z,960.10
2023-03-06T21:07:28.513Z,960.08
2023-03-06T21:17:28.620Z,959.95
2023-03-06T21:27:28.824Z,959.81
2023-03-06T21:37:28.915Z,959.87
2023-03-06T21:47:29.343Z,959.62
2023-03-06T21:57:29.323Z,959.58
2023-03-06T22:07:29.444Z,959.50
2023-03-06T22:17:29.848Z,959.41
2023-03-06T22:27:29.882Z,959.42
2023-03-06T22:37:30.093Z,959.38
2023-03-06T22:47:30.220Z,959.35
2023-03-06T22:57:30.426Z,959.30
2023-03-06T23:07:30.685Z,959.31
2023-03-06T23:17:30.883Z,959.28
2023-03-06T23:27:31.008Z,959.16
2023-03-06T23:37:31.206Z,959.04
2023-03-06T23:47:31.453Z,959.05
2023-03-06T23:57:31.648Z,959.04
